Main page
METAR-TAF:

METAR-TAF

Airports :

RAF Ascension Island

Georgetown, Ascension Island

latitude: 07-58S, longitude: 014-24W, elevation: 86 m

Current weather observation

The report was made 21 hours and 43 minutes ago, at 04:50 UTC
Wind 9 kt from the Southeast
Temperature 26°C
Humidity 84%
Pressure 1011 hPa
Visibility 10 km or more
Few clouds at a height of 1800 ft
Scattered clouds at a height of 5000 ft

METAR: FHAW 210450Z 14009KT 9999 FEW018 SCT050 26/23 Q1011 NOSIG RMK BLU BLU

Time: 02:33 (02:33 UTC)

Forecast

The report was made 25 hours and 3 minutes ago, at 01:30 UTC
Forecast valid from 21 at 03 UTC to 21 at 21 UTC
Wind 10 kt from the Southeast
Visibility 10 km or more
Few clouds at a height of 1500 ft
Probability 30% :
Temporary
from 21 at 03 UTC to 21 at 10 UTC
Visibility: 7000 m
Scattered clouds at a height of 1500 ft
light rain showers

TAF: FHAW 210130Z 2103/2121 14010KT 9999 FEW015 PROB30 TEMPO 2103/2110 7000 -SHRA SCT015

Weather observations and forecasts of more than 4000 airports (METAR and TAF reports).

The available stations are represented by yellow and red dots on the map.

Hover mouse over dot to see the name of the station.

Then click to see weather observations and forecasts.

To change the map : click on the green buttons with a black cross to zoom in, on the green button with a dash to zoom out, or on the green arrows for adjacent maps.


METAR-TAF: